Time;durP1;ratioP1;P1;durP2;ratioP2;P2;SDS_P1;SDS_P2;PMS_P1;PMS_P2;Temp;Humidity;BMP_temperature;BMP_pressure;BME280_temperature;BME280_humidity;BME280_pressure;Samples;Min_cycle;Max_cycle;Signal;HPM_P1;HPM_P2
2023/06/04 00:00:35;;;;;;;15.23;3.25;;;;;;;14.38;46.34;100337.59;5053915;28;20113;-73
2023/06/04 00:03:00;;;;;;;6.80;3.00;;;;;;;14.32;47.04;100345.00;5053282;28;20061;-74
2023/06/04 00:05:25;;;;;;;13.20;3.03;;;;;;;14.23;47.31;100347.47;5053979;28;20301;-73
2023/06/04 00:07:52;;;;;;;5.87;2.93;;;;;;;14.18;47.68;100336.50;5053606;28;20293;-73
2023/06/04 00:10:17;;;;;;;9.77;3.20;;;;;;;14.23;47.34;100336.50;5052712;28;20273;-73
2023/06/04 00:12:42;;;;;;;9.25;4.45;;;;;;;14.27;47.56;100331.28;5053509;28;20037;-73
2023/06/04 00:15:08;;;;;;;6.30;2.97;;;;;;;14.16;47.67;100333.22;5053460;28;20111;-73
2023/06/04 00:17:33;;;;;;;10.38;3.97;;;;;;;14.00;47.87;100328.56;5053087;28;20091;-73
2023/06/04 00:19:58;;;;;;;4.20;2.13;;;;;;;14.10;48.07;100324.16;5052409;28;20040;-73
2023/06/04 00:22:24;;;;;;;6.23;3.50;;;;;;;14.15;47.79;100320.59;5053265;28;20741;-73
2023/06/04 00:24:49;;;;;;;5.60;2.63;;;;;;;14.27;47.53;100317.56;5053283;28;20826;-73
2023/06/04 00:27:14;;;;;;;7.75;4.18;;;;;;;14.31;47.13;100322.25;5053445;28;20029;-73
2023/06/04 00:29:40;;;;;;;4.83;3.13;;;;;;;14.32;47.40;100334.03;5053489;28;20453;-73
2023/06/04 00:32:05;;;;;;;5.63;3.13;;;;;;;14.26;46.98;100326.91;5053098;28;20269;-74
2023/06/04 00:34:31;;;;;;;6.00;2.70;;;;;;;14.36;46.86;100327.72;5053494;28;20288;-73
2023/06/04 00:36:56;;;;;;;9.73;3.60;;;;;;;14.52;46.66;100324.94;5053328;28;20425;-73
2023/06/04 00:39:21;;;;;;;5.60;2.87;;;;;;;14.63;45.71;100323.00;5053119;28;20568;-73
2023/06/04 00:41:46;;;;;;;11.17;2.63;;;;;;;14.69;45.45;100326.53;5052814;28;20254;-73
2023/06/04 00:44:12;;;;;;;5.53;2.85;;;;;;;14.59;46.36;100328.22;5053227;28;20396;-73
2023/06/04 00:46:37;;;;;;;6.55;2.72;;;;;;;14.57;45.76;100324.94;5052664;28;20044;-73
2023/06/04 00:49:04;;;;;;;6.32;3.00;;;;;;;14.50;46.21;100332.63;5052215;28;20451;-73
2023/06/04 00:51:31;;;;;;;6.80;4.05;;;;;;;14.46;46.34;100326.88;5052673;28;20033;-73
2023/06/04 00:53:58;;;;;;;8.15;3.58;;;;;;;14.33;47.23;100321.97;5052951;28;20029;-73
2023/06/04 00:56:23;;;;;;;7.53;4.07;;;;;;;14.27;47.67;100326.63;5052617;28;20182;-74
2023/06/04 00:58:49;;;;;;;7.75;3.67;;;;;;;14.23;47.33;100334.59;5052761;28;20047;-73
2023/06/04 01:01:27;;;;;;;8.75;4.10;;;;;;;14.05;47.75;100329.66;5053106;28;20037;-73
2023/06/04 01:03:55;;;;;;;9.95;3.25;;;;;;;14.03;48.22;100334.59;5052688;28;20040;-73
2023/06/04 01:06:28;;;;;;;7.00;4.18;;;;;;;14.07;48.00;100333.78;5052612;28;20058;-73
2023/06/04 01:08:55;;;;;;;9.32;4.03;;;;;;;13.95;48.63;100338.72;5052029;28;20028;-73
2023/06/04 01:11:38;;;;;;;8.40;3.70;;;;;;;13.99;48.41;100335.13;5051852;28;20036;-73
2023/06/04 01:14:05;;;;;;;11.65;3.47;;;;;;;13.92;48.53;100331.03;5052384;28;20025;-73
2023/06/04 01:16:38;;;;;;;7.38;3.20;;;;;;;13.68;48.85;100326.91;5052554;28;20040;-73
2023/06/04 01:19:10;;;;;;;8.85;3.40;;;;;;;13.77;48.65;100324.44;5051965;28;20113;-73
2023/06/04 01:21:38;;;;;;;9.60;3.45;;;;;;;13.83;48.16;100325.28;5052012;28;20137;-73
2023/06/04 01:24:06;;;;;;;10.23;3.55;;;;;;;13.95;48.16;100333.22;5052370;28;20028;-73
2023/06/04 01:26:32;;;;;;;9.48;3.30;;;;;;;13.94;48.11;100339.78;5052721;28;20036;-73
2023/06/04 01:28:59;;;;;;;6.35;2.80;;;;;;;13.93;47.87;100339.00;5051780;28;20776;-72
2023/06/04 01:31:25;;;;;;;6.90;2.80;;;;;;;13.93;47.89;100332.69;5052526;28;20110;-73
2023/06/04 01:33:52;;;;;;;11.05;3.33;;;;;;;13.94;47.85;100339.78;5051923;28;20036;-73
2023/06/04 01:36:18;;;;;;;8.18;3.35;;;;;;;13.84;48.04;100344.19;5051625;28;20503;-73
2023/06/04 01:38:43;;;;;;;7.18;3.40;;;;;;;13.75;48.78;100332.13;5051094;28;20040;-73
2023/06/04 01:41:08;;;;;;;8.47;4.30;;;;;;;13.70;48.93;100334.84;5052004;28;20641;-73
2023/06/04 01:43:35;;;;;;;7.93;3.80;;;;;;;13.63;49.14;100335.09;5050632;28;20300;-73
2023/06/04 01:46:00;;;;;;;7.85;3.38;;;;;;;13.66;48.83;100345.53;5050513;28;20277;-73
2023/06/04 01:48:26;;;;;;;4.40;2.70;;;;;;;13.52;48.94;100339.72;5051881;28;20041;-73
2023/06/04 01:50:51;;;;;;;7.93;3.63;;;;;;;13.39;49.57;100341.88;5052129;28;20036;-76
2023/06/04 01:53:16;;;;;;;6.15;3.15;;;;;;;13.30;50.02;100336.09;5051937;28;20288;-74
2023/06/04 01:55:42;;;;;;;10.52;4.00;;;;;;;13.14;50.82;100334.41;5052117;28;20078;-74
2023/06/04 01:58:09;;;;;;;9.82;3.60;;;;;;;13.12;50.79;100337.41;5051742;28;20039;-73
2023/06/04 02:00:34;;;;;;;9.07;4.55;;;;;;;12.99;51.04;100332.44;5052212;28;20062;-74
2023/06/04 02:02:59;;;;;;;9.30;3.67;;;;;;;12.92;51.21;100336.22;5051804;28;20040;-73
2023/06/04 02:05:25;;;;;;;8.10;3.35;;;;;;;12.88;51.15;100335.13;5051914;28;20118;-74
2023/06/04 02:07:51;;;;;;;7.97;3.67;;;;;;;12.84;51.14;100337.56;5051502;28;20055;-74
2023/06/04 02:10:18;;;;;;;6.05;2.85;;;;;;;12.83;51.10;100337.84;5051002;28;20035;-74
2023/06/04 02:12:58;;;;;;;10.13;3.92;;;;;;;12.80;51.39;100341.09;5050827;28;20024;-74
2023/06/04 02:15:25;;;;;;;9.57;3.72;;;;;;;12.76;51.69;100335.34;5051975;28;20032;-74
2023/06/04 02:17:51;;;;;;;10.98;4.35;;;;;;;12.68;52.43;100344.88;5051747;28;20282;-74
2023/06/04 02:20:17;;;;;;;7.10;3.30;;;;;;;12.61;52.69;100338.78;5050645;28;20037;-74
2023/06/04 02:22:42;;;;;;;7.10;2.90;;;;;;;12.66;52.42;100352.50;5052917;28;21229;-74
2023/06/04 02:25:11;;;;;;;8.32;4.25;;;;;;;12.72;52.42;100347.91;5055293;28;20036;-74
2023/06/04 02:27:36;;;;;;;6.22;3.15;;;;;;;12.73;52.16;100347.63;5055786;28;20031;-74
2023/06/04 02:30:03;;;;;;;7.55;3.40;;;;;;;12.93;52.17;100340.63;5054537;28;20044;-74
2023/06/04 02:32:28;;;;;;;7.85;3.42;;;;;;;12.93;51.84;100340.63;5054042;28;20036;-74
2023/06/04 02:34:55;;;;;;;9.20;3.38;;;;;;;13.02;51.17;100353.78;5055197;28;20036;-74
2023/06/04 02:37:20;;;;;;;4.90;2.53;;;;;;;13.05;51.17;100343.13;5054843;28;20044;-73
2023/06/04 02:39:46;;;;;;;8.23;2.95;;;;;;;13.03;51.34;100347.22;5054675;28;21287;-73
2023/06/04 02:42:11;;;;;;;7.05;2.45;;;;;;;12.98;50.96;100347.22;5054870;28;20450;-73
2023/06/04 02:44:36;;;;;;;7.10;3.03;;;;;;;12.99;51.07;100344.22;5054098;28;20474;-74
2023/06/04 02:47:02;;;;;;;9.27;2.77;;;;;;;12.91;51.35;100342.81;5055186;28;20261;-74
2023/06/04 02:49:27;;;;;;;9.02;2.75;;;;;;;12.91;51.51;100345.53;5054163;28;20407;-74
2023/06/04 02:51:52;;;;;;;5.25;2.20;;;;;;;12.81;51.36;100345.50;5057304;28;20037;-74
2023/06/04 02:54:17;;;;;;;6.20;2.50;;;;;;;12.86;51.54;100341.94;5054733;28;20024;-74
2023/06/04 02:56:44;;;;;;;5.63;2.58;;;;;;;12.66;52.19;100347.03;5055171;28;20254;-74
2023/06/04 02:59:09;;;;;;;8.15;3.05;;;;;;;12.78;51.88;100349.56;5054450;28;20044;-74
2023/06/04 03:01:35;;;;;;;5.82;3.17;;;;;;;12.82;51.52;100344.38;5055102;28;20024;-74
2023/06/04 03:04:04;;;;;;;4.10;2.00;;;;;;;12.85;51.17;100346.59;5055107;28;20686;-73
2023/06/04 03:06:31;;;;;;;3.53;2.08;;;;;;;12.78;51.20;100343.25;5054579;28;20136;-73
2023/06/04 03:08:56;;;;;;;4.07;2.22;;;;;;;12.76;51.53;100339.97;5053916;28;20037;-73
2023/06/04 03:11:21;;;;;;;5.68;2.33;;;;;;;12.73;51.63;100336.69;5054832;28;20125;-74
2023/06/04 03:13:48;;;;;;;7.97;3.10;;;;;;;12.76;51.54;100350.91;5054819;28;20474;-73
2023/06/04 03:16:13;;;;;;;4.60;1.95;;;;;;;12.81;51.39;100351.75;5054551;28;20082;-74
2023/06/04 03:18:42;;;;;;;5.07;2.17;;;;;;;12.63;52.00;100346.75;5053948;28;20082;-74
2023/06/04 03:21:08;;;;;;;5.70;3.03;;;;;;;12.56;51.77;100344.25;5053718;28;20049;-75
2023/06/04 03:23:34;;;;;;;7.25;3.00;;;;;;;12.49;52.45;100352.66;5054674;28;20048;-75
2023/06/04 03:26:02;;;;;;;6.53;2.42;;;;;;;12.54;52.28;100352.72;5054551;28;20059;-73
2023/06/04 03:28:28;;;;;;;4.75;2.53;;;;;;;12.62;52.46;100345.94;5053768;28;20029;-73
2023/06/04 03:30:53;;;;;;;7.78;2.28;;;;;;;12.43;52.61;100343.63;5054282;28;20681;-74
2023/06/04 03:33:18;;;;;;;6.75;2.70;;;;;;;12.44;52.76;100348.00;5053501;28;20110;-74
2023/06/04 03:35:43;;;;;;;4.20;2.08;;;;;;;12.34;53.18;100351.50;5052719;28;20039;-74
2023/06/04 03:38:09;;;;;;;7.17;3.17;;;;;;;12.34;53.01;100347.94;5053319;28;20033;-74
2023/06/04 03:40:34;;;;;;;8.38;2.97;;;;;;;12.29;53.33;100353.34;5054425;28;21499;-74
2023/06/04 03:43:00;;;;;;;7.13;2.80;;;;;;;12.30;53.36;100355.00;5054094;28;20035;-74
2023/06/04 03:45:25;;;;;;;7.35;2.30;;;;;;;12.25;53.76;100353.06;5054285;28;20040;-74
2023/06/04 03:47:51;;;;;;;6.65;2.40;;;;;;;12.13;53.83;100353.22;5054072;28;20122;-74
2023/06/04 03:50:18;;;;;;;10.47;3.17;;;;;;;12.02;54.11;100360.50;5053309;28;20044;-73
2023/06/04 03:52:43;;;;;;;4.35;1.95;;;;;;;11.96;54.50;100356.88;5053592;28;20245;-75
2023/06/04 03:55:08;;;;;;;7.73;3.83;;;;;;;12.09;54.44;100354.81;5053997;28;20036;-76
2023/06/04 03:57:34;;;;;;;9.27;3.97;;;;;;;12.09;54.44;100358.38;5054081;28;20323;-75
2023/06/04 03:59:59;;;;;;;6.03;2.80;;;;;;;12.09;54.29;100361.09;5053036;28;20265;-75
2023/06/04 04:02:24;;;;;;;4.75;2.55;;;;;;;12.23;54.37;100356.06;5054078;28;20308;-72
2023/06/04 04:04:50;;;;;;;4.93;2.43;;;;;;;12.18;54.69;100358.75;5053229;28;20040;-72
2023/06/04 04:07:15;;;;;;;6.65;3.33;;;;;;;12.31;54.54;100362.13;5053567;28;20258;-73
2023/06/04 04:09:41;;;;;;;6.45;2.90;;;;;;;12.41;53.75;100362.19;5052920;28;20119;-73
2023/06/04 04:12:06;;;;;;;7.95;3.53;;;;;;;12.57;53.82;100367.78;5053775;28;20119;-72
2023/06/04 04:14:32;;;;;;;8.95;3.17;;;;;;;12.69;53.37;100362.91;5053874;28;20424;-72
2023/06/04 04:16:57;;;;;;;7.47;3.03;;;;;;;12.80;53.41;100362.97;5053794;28;20036;-72
2023/06/04 04:19:22;;;;;;;7.03;2.67;;;;;;;12.76;53.54;100361.84;5052453;28;20300;-72
2023/06/04 04:21:48;;;;;;;7.03;3.53;;;;;;;12.73;53.52;100357.75;5053666;28;20282;-72
2023/06/04 04:24:35;;;;;;;5.95;2.35;;;;;;;12.68;54.43;100352.25;5053264;28;20275;-72
2023/06/04 04:27:03;;;;;;;6.38;2.97;;;;;;;12.83;53.54;100363.25;5053392;28;20505;-72
2023/06/04 04:29:32;;;;;;;7.68;2.92;;;;;;;12.89;53.59;100361.41;5053193;28;20052;-72
2023/06/04 04:32:00;;;;;;;5.82;3.15;;;;;;;13.03;52.85;100358.19;5052953;28;20492;-72
2023/06/04 04:34:26;;;;;;;8.13;2.55;;;;;;;13.11;52.98;100356.84;5053350;28;20120;-72
2023/06/04 04:36:56;;;;;;;8.50;3.00;;;;;;;13.22;52.54;100354.97;5053291;28;20106;-72
2023/06/04 04:39:25;;;;;;;6.82;2.63;;;;;;;13.25;52.44;100346.22;5052481;28;20173;-73
2023/06/04 04:41:51;;;;;;;5.65;2.95;;;;;;;13.36;52.91;100350.66;5053268;28;20033;-72
2023/06/04 04:44:16;;;;;;;7.10;3.05;;;;;;;13.37;52.67;100354.19;5052607;28;20028;-72
2023/06/04 04:46:42;;;;;;;8.13;3.47;;;;;;;13.42;52.17;100356.97;5052465;28;20029;-72
2023/06/04 04:49:07;;;;;;;7.23;3.60;;;;;;;13.43;52.83;100353.94;5051153;28;20037;-72
2023/06/04 04:51:32;;;;;;;9.68;4.60;;;;;;;13.54;52.01;100354.84;5053284;28;20271;-72
2023/06/04 04:54:00;;;;;;;7.63;3.63;;;;;;;13.68;51.78;100356.22;5052933;28;20035;-73
2023/06/04 04:56:26;;;;;;;4.18;2.67;;;;;;;13.67;51.78;100358.13;5053199;28;20025;-73
2023/06/04 04:58:51;;;;;;;9.77;3.63;;;;;;;13.71;51.54;100355.69;5052375;28;20043;-72
2023/06/04 05:01:17;;;;;;;6.55;2.97;;;;;;;13.79;51.41;100349.63;5052470;28;20047;-72
2023/06/04 05:03:42;;;;;;;6.88;3.72;;;;;;;13.87;51.48;100357.31;5052981;28;20040;-72
2023/06/04 05:06:07;;;;;;;7.13;3.50;;;;;;;13.89;51.37;100360.63;5052585;28;20494;-73
2023/06/04 05:08:32;;;;;;;6.03;2.97;;;;;;;14.05;51.08;100351.59;5052068;28;20261;-72
2023/06/04 05:10:57;;;;;;;6.97;3.07;;;;;;;14.01;51.46;100356.81;5053081;28;20323;-73
2023/06/04 05:13:23;;;;;;;7.13;3.20;;;;;;;13.95;51.49;100363.38;5052583;28;20309;-72
2023/06/04 05:15:48;;;;;;;6.45;3.38;;;;;;;13.94;51.46;100361.72;5052598;28;20747;-72
2023/06/04 05:18:16;;;;;;;12.67;4.30;;;;;;;13.98;51.21;100354.59;5052124;28;20398;-72
2023/06/04 05:20:42;;;;;;;5.30;2.80;;;;;;;14.09;51.19;100353.53;5052240;28;20277;-73
2023/06/04 05:23:08;;;;;;;7.82;3.40;;;;;;;14.12;51.03;100363.94;5052188;28;20704;-73
2023/06/04 05:25:33;;;;;;;7.30;3.78;;;;;;;14.27;50.79;100361.47;5052494;28;20064;-73
2023/06/04 05:27:59;;;;;;;6.45;3.13;;;;;;;14.39;50.41;100366.66;5051778;28;20041;-72
2023/06/04 05:30:24;;;;;;;7.87;3.97;;;;;;;14.39;50.81;100362.00;5052445;28;20090;-73
2023/06/04 05:32:50;;;;;;;6.40;3.22;;;;;;;14.40;50.81;100360.88;5052283;28;20281;-72
2023/06/04 05:35:16;;;;;;;8.60;3.65;;;;;;;14.41;51.14;100362.53;5052312;28;20029;-72
2023/06/04 05:37:41;;;;;;;6.28;2.90;;;;;;;14.43;51.31;100362.25;5052168;28;20049;-72
2023/06/04 05:40:08;;;;;;;11.55;2.85;;;;;;;14.56;50.51;100361.69;5051697;28;20039;-72
2023/06/04 05:42:33;;;;;;;5.68;3.15;;;;;;;14.59;50.53;100361.16;5052688;28;20071;-72
2023/06/04 05:44:59;;;;;;;7.72;3.60;;;;;;;14.51;50.85;100364.44;5052240;28;20049;-73
2023/06/04 05:47:24;;;;;;;6.50;3.38;;;;;;;14.62;50.60;100358.94;5052105;28;20233;-72
2023/06/04 05:49:50;;;;;;;5.38;3.00;;;;;;;14.73;49.96;100363.31;5051731;28;20040;-72
2023/06/04 05:52:15;;;;;;;7.50;3.30;;;;;;;14.81;49.64;100367.41;5051943;28;20052;-72
2023/06/04 05:54:40;;;;;;;12.30;4.07;;;;;;;14.74;50.52;100373.19;5052395;28;20025;-72
2023/06/04 05:57:06;;;;;;;15.98;5.18;;;;;;;14.79;50.39;100366.84;5053359;28;20041;-72
2023/06/04 05:59:32;;;;;;;32.65;5.18;;;;;;;14.86;50.25;100370.16;5055752;28;20040;-73
2023/06/04 06:01:57;;;;;;;12.60;4.10;;;;;;;14.84;50.32;100371.53;5056096;28;20043;-72
2023/06/04 06:04:22;;;;;;;10.73;2.78;;;;;;;14.87;49.96;100376.50;5055586;28;20067;-72
2023/06/04 06:06:48;;;;;;;7.20;3.40;;;;;;;14.88;49.96;100378.13;5056032;28;20884;-72
2023/06/04 06:09:16;;;;;;;8.50;3.35;;;;;;;14.89;50.57;100379.78;5055161;28;20029;-72
2023/06/04 06:11:42;;;;;;;11.68;3.35;;;;;;;14.96;50.57;100374.81;5055818;28;20036;-72
2023/06/04 06:14:07;;;;;;;7.78;3.53;;;;;;;14.83;50.74;100384.44;5056200;28;20037;-73
2023/06/04 06:16:33;;;;;;;8.45;4.03;;;;;;;15.02;49.41;100379.19;5055866;28;20037;-72
2023/06/04 06:18:58;;;;;;;9.98;4.20;;;;;;;15.21;48.91;100381.31;5055406;28;20785;-72
2023/06/04 06:21:24;;;;;;;10.90;3.70;;;;;;;15.27;49.34;100380.19;5055004;28;20663;-72
2023/06/04 06:23:49;;;;;;;12.20;4.03;;;;;;;15.29;49.32;100394.44;5055334;28;20045;-73
2023/06/04 06:26:15;;;;;;;11.38;4.78;;;;;;;15.14;49.23;100397.25;5055880;28;20043;-73
2023/06/04 06:28:41;;;;;;;7.10;3.60;;;;;;;15.20;49.36;100395.31;5055300;28;20103;-72
2023/06/04 06:31:07;;;;;;;10.00;4.32;;;;;;;15.38;48.80;100396.59;5055924;28;20687;-72
2023/06/04 06:33:32;;;;;;;11.98;4.75;;;;;;;15.39;47.84;100401.00;5055644;28;20179;-73
2023/06/04 06:35:59;;;;;;;9.20;4.03;;;;;;;15.47;48.32;100400.41;5055438;28;20033;-73
2023/06/04 06:38:25;;;;;;;9.00;3.83;;;;;;;15.47;47.28;100399.59;5054726;28;20274;-72
2023/06/04 06:40:50;;;;;;;8.60;3.38;;;;;;;15.60;47.06;100398.16;5054801;28;20037;-74
2023/06/04 06:43:16;;;;;;;10.07;3.90;;;;;;;15.68;46.88;100399.50;5054769;28;20143;-74
2023/06/04 06:45:41;;;;;;;7.97;3.17;;;;;;;15.70;45.61;100405.53;5055073;28;20036;-73
2023/06/04 06:48:06;;;;;;;7.10;2.97;;;;;;;15.51;47.25;100404.25;5054285;28;20036;-74
2023/06/04 06:50:33;;;;;;;7.93;2.87;;;;;;;15.54;47.68;100404.78;5054851;28;20036;-71
2023/06/04 06:52:58;;;;;;;11.15;2.80;;;;;;;15.58;47.14;100405.88;5055320;28;20029;-73
2023/06/04 06:55:23;;;;;;;6.93;3.17;;;;;;;15.77;46.68;100403.28;5054820;28;20093;-73
2023/06/04 06:57:49;;;;;;;8.95;2.90;;;;;;;15.67;46.88;100406.91;5054905;28;20294;-72
2023/06/04 07:00:15;;;;;;;10.05;3.38;;;;;;;15.80;46.42;100410.13;5053496;28;20944;-73
2023/06/04 07:02:40;;;;;;;4.85;2.33;;;;;;;15.94;45.76;100408.41;5054383;28;20075;-69
2023/06/04 07:05:06;;;;;;;7.77;2.83;;;;;;;15.98;45.96;100406.72;5053701;28;20517;-70
2023/06/04 07:07:31;;;;;;;12.75;2.10;;;;;;;16.04;45.58;100406.69;5052661;28;20032;-76
2023/06/04 07:09:56;;;;;;;12.27;3.13;;;;;;;16.05;46.02;100408.34;5053307;28;20102;-76
2023/06/04 07:12:22;;;;;;;7.07;2.70;;;;;;;16.07;46.17;100411.63;5053352;28;20404;-76
2023/06/04 07:14:47;;;;;;;6.73;3.77;;;;;;;16.23;45.35;100409.59;5055291;28;20040;-78
2023/06/04 07:17:13;;;;;;;6.82;2.78;;;;;;;16.33;45.20;100415.00;5055230;28;20266;-77
2023/06/04 07:19:39;;;;;;;9.25;3.15;;;;;;;16.34;45.17;100415.81;5054928;28;20088;-77
2023/06/04 07:22:05;;;;;;;12.95;3.53;;;;;;;16.30;46.10;100409.25;5052394;28;20583;-75
2023/06/04 07:24:30;;;;;;;6.72;3.25;;;;;;;16.43;45.31;100408.56;5055457;28;20056;-76
2023/06/04 07:26:55;;;;;;;7.07;2.73;;;;;;;16.50;45.07;100413.75;5054982;28;20056;-77
2023/06/04 07:29:21;;;;;;;5.72;2.63;;;;;;;16.43;45.27;100407.78;5054027;28;20272;-77
2023/06/04 07:31:46;;;;;;;7.95;3.10;;;;;;;16.51;44.96;100415.41;5055171;28;20049;-76
2023/06/04 07:34:11;;;;;;;7.90;2.90;;;;;;;16.55;44.52;100410.16;5054428;28;20505;-77
2023/06/04 07:36:37;;;;;;;6.13;2.77;;;;;;;16.59;44.88;100408.47;5055459;28;20273;-78
2023/06/04 07:39:04;;;;;;;5.35;2.83;;;;;;;16.64;44.13;100408.38;5054806;28;20280;-77
2023/06/04 07:41:30;;;;;;;3.63;2.03;;;;;;;16.73;44.39;100410.50;5053775;28;20090;-78
2023/06/04 07:43:55;;;;;;;5.50;2.65;;;;;;;16.73;44.82;100413.28;5055260;28;20036;-78
2023/06/04 07:46:20;;;;;;;5.93;2.60;;;;;;;16.79;44.46;100410.19;5054968;28;20070;-78
2023/06/04 07:48:46;;;;;;;4.93;2.33;;;;;;;16.91;44.88;100406.19;5054708;28;21509;-81
2023/06/04 07:51:13;;;;;;;5.93;2.47;;;;;;;16.98;44.23;100416.88;5053366;28;20071;-78
2023/06/04 07:53:38;;;;;;;6.78;1.75;;;;;;;17.07;43.72;100415.09;5055198;28;20437;-76
2023/06/04 07:56:04;;;;;;;4.38;2.33;;;;;;;17.11;43.69;100421.69;5054950;28;20052;-77
2023/06/04 07:58:29;;;;;;;8.07;2.35;;;;;;;17.20;43.70;100412.78;5054042;28;20124;-80
2023/06/04 08:00:55;;;;;;;7.07;3.08;;;;;;;17.24;43.16;100424.88;5054990;28;20052;-77
2023/06/04 08:03:21;;;;;;;8.27;2.78;;;;;;;17.31;43.09;100419.81;5054791;28;20538;-77
2023/06/04 08:05:46;;;;;;;4.78;2.53;;;;;;;17.44;42.90;100411.94;5054141;28;20413;-79
2023/06/04 08:08:11;;;;;;;5.33;3.00;;;;;;;17.50;42.58;100414.34;5052874;28;20037;-80
2023/06/04 08:10:37;;;;;;;14.77;3.20;;;;;;;17.61;40.91;100411.47;5053788;28;20280;-80
2023/06/04 08:13:02;;;;;;;5.57;2.37;;;;;;;17.54;41.60;100417.31;5055125;28;20075;-79
2023/06/04 08:15:28;;;;;;;4.72;2.60;;;;;;;17.65;41.74;100411.69;5053694;28;20667;-79
2023/06/04 08:17:53;;;;;;;13.10;4.30;;;;;;;17.76;41.75;100413.16;5052340;28;20044;-73
2023/06/04 08:20:18;;;;;;;12.23;4.70;;;;;;;17.83;41.64;100416.38;5053311;28;20137;-72
2023/06/04 08:22:43;;;;;;;5.13;2.80;;;;;;;17.92;40.96;100415.72;5054562;28;20040;-73
2023/06/04 08:25:09;;;;;;;7.00;3.63;;;;;;;18.00;40.68;100415.00;5053298;28;20041;-73
2023/06/04 08:27:34;;;;;;;8.35;3.38;;;;;;;18.04;40.32;100418.81;5052942;28;20028;-74
2023/06/04 08:30:00;;;;;;;6.47;2.55;;;;;;;18.07;42.02;100423.75;5051916;28;20534;-74
2023/06/04 08:32:25;;;;;;;8.00;2.83;;;;;;;18.15;40.68;100415.91;5053606;28;20913;-74
2023/06/04 08:34:50;;;;;;;7.88;3.13;;;;;;;18.23;40.48;100425.47;5053873;28;20025;-73
2023/06/04 08:37:17;;;;;;;8.57;2.77;;;;;;;18.33;40.16;100418.97;5052844;28;20422;-74
2023/06/04 08:39:42;;;;;;;5.90;2.65;;;;;;;18.41;40.11;100423.78;5053625;28;20063;-74
2023/06/04 08:42:15;;;;;;;8.90;2.90;;;;;;;18.44;39.24;100420.44;5054110;28;20064;-74
2023/06/04 08:44:42;;;;;;;7.47;3.00;;;;;;;18.52;39.75;100422.50;5054521;28;20257;-74
2023/06/04 08:47:08;;;;;;;5.57;3.15;;;;;;;18.58;39.23;100414.13;5053068;28;20669;-73
2023/06/04 08:49:36;;;;;;;6.53;3.50;;;;;;;18.72;39.57;100426.00;5052851;28;20466;-73
2023/06/04 08:52:02;;;;;;;5.43;3.03;;;;;;;18.85;40.38;100423.59;5053176;28;20082;-74
2023/06/04 08:54:29;;;;;;;7.07;3.30;;;;;;;18.93;38.61;100414.59;5052887;28;20039;-73
2023/06/04 08:56:57;;;;;;;7.45;2.95;;;;;;;19.03;38.82;100416.34;5053521;28;20102;-75
2023/06/04 08:59:22;;;;;;;7.35;3.53;;;;;;;19.18;38.31;100417.19;5052378;28;20418;-76
2023/06/04 09:01:48;;;;;;;7.97;3.72;;;;;;;19.25;38.42;100409.28;5053665;28;20040;-76
2023/06/04 09:04:13;;;;;;;9.02;3.13;;;;;;;19.33;38.39;100414.09;5052615;28;20040;-76
2023/06/04 09:06:41;;;;;;;8.10;3.88;;;;;;;19.48;37.13;100415.72;5053375;28;20044;-75
2023/06/04 09:09:09;;;;;;;11.82;2.90;;;;;;;19.56;37.21;100416.13;5013133;28;20126;-77
2023/06/04 09:11:48;;;;;;;5.68;3.38;;;;;;;19.71;36.56;100420.47;5043537;28;20040;-78
2023/06/04 09:14:16;;;;;;;8.00;4.50;;;;;;;19.81;37.17;100427.75;5042708;28;20078;-78
2023/06/04 09:16:49;;;;;;;13.20;4.00;;;;;;;19.88;36.67;100419.00;5043177;28;20053;-79
2023/06/04 09:19:15;;;;;;;13.35;5.25;;;;;;;19.94;35.13;100415.81;5042425;28;20037;-78
2023/06/04 09:21:55;;;;;;;16.27;5.25;;;;;;;20.03;35.79;100421.41;5043546;28;20076;-77
2023/06/04 09:24:22;;;;;;;14.07;5.38;;;;;;;20.17;36.40;100418.63;5043509;28;20029;-78
2023/06/04 09:26:48;;;;;;;8.75;3.85;;;;;;;20.28;36.59;100418.34;5042260;28;20102;-78
2023/06/04 09:29:15;;;;;;;9.00;4.25;;;;;;;20.41;36.11;100411.94;5041901;28;20033;-78
2023/06/04 09:31:40;;;;;;;10.00;3.70;;;;;;;20.54;36.36;100417.72;5042927;28;20123;-75
2023/06/04 09:34:06;;;;;;;7.50;3.90;;;;;;;20.58;36.20;100417.91;5043430;28;20516;-79
2023/06/04 09:36:35;;;;;;;9.15;4.65;;;;;;;20.72;35.79;100413.09;5043297;28;20270;-79
2023/06/04 09:39:05;;;;;;;6.20;3.13;;;;;;;20.68;35.61;100417.63;5043127;28;20041;-79
2023/06/04 09:41:30;;;;;;;9.98;3.90;;;;;;;20.74;35.22;100404.44;5042981;28;20076;-79
2023/06/04 09:44:02;;;;;;;6.28;3.53;;;;;;;20.87;34.94;100417.38;5043537;28;20068;-79
2023/06/04 09:46:28;;;;;;;6.97;4.45;;;;;;;20.98;34.42;100419.91;5042764;28;20025;-79
2023/06/04 09:49:01;;;;;;;7.75;3.42;;;;;;;20.98;35.12;100419.91;5042920;28;20036;-79
2023/06/04 09:51:26;;;;;;;7.47;2.85;;;;;;;21.05;35.33;100419.44;5042970;28;20036;-79
2023/06/04 09:54:02;;;;;;;5.07;2.85;;;;;;;21.02;33.36;100415.34;5043573;28;20041;-79
2023/06/04 09:56:27;;;;;;;9.27;3.88;;;;;;;21.10;34.00;100420.13;5042597;28;20045;-81
2023/06/04 09:59:02;;;;;;;22.50;5.55;;;;;;;21.15;32.84;100412.78;5042399;28;20830;-80
2023/06/04 10:01:29;;;;;;;5.95;2.65;;;;;;;21.24;32.91;100410.84;5042979;28;20120;-79
2023/06/04 10:03:57;;;;;;;8.25;2.88;;;;;;;21.37;33.24;100420.19;5043446;28;20097;-79
2023/06/04 10:06:23;;;;;;;13.05;2.60;;;;;;;21.48;32.03;100415.13;5042507;28;20097;-80
2023/06/04 10:08:50;;;;;;;5.15;1.95;;;;;;;21.60;31.89;100408.16;5042534;28;20041;-80
2023/06/04 10:11:21;;;;;;;5.70;2.65;;;;;;;21.72;31.77;100410.28;5042344;28;20064;-79
2023/06/04 10:14:27;;;;;;;4.35;1.85;;;;;;;21.65;31.33;100400.50;5042875;28;20475;-79
2023/06/04 10:16:53;;;;;;;4.75;2.00;;;;;;;21.85;32.56;100401.00;5042503;28;20083;-79
2023/06/04 10:19:19;;;;;;;5.78;2.70;;;;;;;21.83;33.00;100399.69;5041685;28;20405;-79
2023/06/04 10:21:45;;;;;;;6.13;2.90;;;;;;;21.97;31.70;100400.34;5042189;28;20045;-80
2023/06/04 10:24:12;;;;;;;5.85;2.10;;;;;;;22.00;31.34;100408.03;5042520;28;20043;-79
2023/06/04 10:26:39;;;;;;;11.50;3.03;;;;;;;22.19;32.01;100398.53;5043030;28;20198;-79
2023/06/04 10:29:05;;;;;;;5.30;2.50;;;;;;;22.23;31.56;100393.16;5042253;28;20037;-80
2023/06/04 10:31:32;;;;;;;10.23;3.20;;;;;;;22.36;30.64;100399.66;5042917;28;20716;-79
2023/06/04 10:33:57;;;;;;;5.00;2.42;;;;;;;22.39;31.66;100399.81;5042799;28;20079;-80
2023/06/04 10:36:24;;;;;;;5.75;2.38;;;;;;;22.45;31.32;100400.47;5042334;28;20139;-80
2023/06/04 10:38:54;;;;;;;5.63;2.60;;;;;;;22.47;31.86;100391.78;5042677;28;20467;-80
2023/06/04 10:41:21;;;;;;;8.65;3.08;;;;;;;22.34;32.57;100401.94;5042189;28;20087;-79
2023/06/04 10:43:51;;;;;;;4.93;2.15;;;;;;;22.41;31.57;100405.03;5043638;28;20120;-79
2023/06/04 10:46:18;;;;;;;8.98;2.88;;;;;;;22.59;31.62;100393.88;5045829;28;20150;-79
2023/06/04 10:48:51;;;;;;;17.65;4.47;;;;;;;22.69;31.82;100399.09;5046383;28;20036;-79
2023/06/04 10:51:32;;;;;;;7.75;3.47;;;;;;;22.73;31.66;100399.25;5045862;28;20041;-79
2023/06/04 10:53:58;;;;;;;6.25;2.90;;;;;;;22.81;31.21;100392.03;5046487;28;20075;-79
2023/06/04 10:56:26;;;;;;;4.57;2.30;;;;;;;22.85;31.34;100387.44;5045572;28;20126;-79
2023/06/04 10:58:51;;;;;;;24.63;4.68;;;;;;;23.01;31.57;100393.25;5045949;28;20060;-79
2023/06/04 11:01:28;;;;;;;15.93;3.30;;;;;;;22.98;32.13;100382.81;5045681;28;20462;-79
2023/06/04 11:03:53;;;;;;;8.18;4.00;;;;;;;22.94;31.68;100385.41;5078541;28;20762;-79
2023/06/04 11:06:18;;;;;;;6.57;2.70;;;;;;;23.01;31.80;100384.09;5045477;28;20066;-79
2023/06/04 11:08:44;;;;;;;7.23;3.00;;;;;;;23.13;31.85;100384.19;5045647;28;20410;-79
2023/06/04 11:11:16;;;;;;;7.22;2.55;;;;;;;23.26;30.72;100375.94;5044989;28;20274;-80
2023/06/04 11:13:42;;;;;;;8.68;3.17;;;;;;;23.26;30.34;100375.94;5045903;28;20524;-80
2023/06/04 11:16:21;;;;;;;8.20;2.92;;;;;;;23.31;30.17;100376.53;5045768;28;20048;-79
2023/06/04 11:19:02;;;;;;;3.80;1.90;;;;;;;23.35;29.86;100368.34;5045433;28;20044;-80
2023/06/04 11:21:27;;;;;;;4.97;2.42;;;;;;;23.33;30.09;100371.47;5045007;28;20610;-79